createdAt,value
2017-12-26T00:00:52.367Z,78.96
2017-12-26T00:01:57.361Z,79.35
2017-12-26T00:03:01.667Z,79.29
2017-12-26T00:04:05.919Z,79.29
2017-12-26T00:05:10.476Z,79.33
2017-12-26T00:06:14.870Z,79.69
2017-12-26T00:07:19.170Z,79.69
2017-12-26T00:08:23.432Z,79.58
2017-12-26T00:09:27.792Z,79.05
2017-12-26T00:10:32.059Z,79.34
2017-12-26T00:11:36.267Z,78.75
2017-12-26T00:12:40.472Z,78.42
2017-12-26T00:13:46.543Z,78.66
2017-12-26T00:14:50.757Z,78.61
2017-12-26T00:15:55.101Z,78.66
2017-12-26T00:17:00.166Z,78.90
2017-12-26T00:18:04.382Z,79.09
2017-12-26T00:19:08.620Z,78.79
2017-12-26T00:20:12.846Z,78.79
2017-12-26T00:21:17.039Z,78.68
2017-12-26T00:22:22.392Z,78.91
2017-12-26T00:23:26.896Z,79.01
2017-12-26T00:24:31.910Z,78.67
2017-12-26T00:25:36.409Z,78.92
2017-12-26T00:26:40.775Z,79.00
2017-12-26T00:27:45.751Z,79.30
2017-12-26T00:28:50.820Z,78.82
2017-12-26T00:29:55.019Z,78.97
2017-12-26T00:30:59.636Z,78.77
2017-12-26T00:32:03.944Z,78.49
2017-12-26T00:33:08.568Z,78.63
2017-12-26T00:34:12.782Z,78.85
2017-12-26T00:35:17.315Z,78.30
2017-12-26T00:36:21.575Z,78.55
2017-12-26T00:37:25.788Z,78.52
2017-12-26T00:38:31.909Z,78.28
2017-12-26T00:39:36.196Z,78.12
2017-12-26T00:40:49.223Z,78.11
2017-12-26T00:41:54.187Z,78.30
2017-12-26T00:42:58.512Z,78.28
2017-12-26T00:44:02.771Z,78.09
2017-12-26T00:45:07.157Z,78.10
2017-12-26T00:46:12.051Z,78.32
2017-12-26T00:47:16.214Z,78.04
2017-12-26T00:48:20.490Z,78.20
2017-12-26T00:49:24.781Z,78.04
2017-12-26T00:50:28.986Z,77.92
2017-12-26T00:51:33.176Z,78.20
2017-12-26T00:52:37.658Z,78.22
2017-12-26T00:53:41.969Z,77.98
2017-12-26T00:54:46.205Z,77.99
2017-12-26T00:55:50.400Z,77.71
2017-12-26T00:56:55.112Z,77.78
2017-12-26T00:57:59.394Z,77.93
2017-12-26T00:59:03.907Z,78.41
2017-12-26T01:00:16.007Z,78.05
2017-12-26T01:01:20.278Z,77.90
2017-12-26T01:03:36.603Z,77.63
2017-12-26T01:04:40.756Z,77.65
2017-12-26T01:05:45.047Z,78.01
2017-12-26T01:06:49.245Z,77.97
2017-12-26T01:07:53.546Z,78.02
2017-12-26T01:08:59.577Z,77.39
2017-12-26T01:10:04.038Z,77.64
2017-12-26T01:11:08.552Z,77.42
2017-12-26T01:12:12.832Z,77.60
2017-12-26T01:13:17.684Z,77.88
2017-12-26T01:14:21.881Z,77.74
2017-12-26T01:15:26.444Z,77.66
2017-12-26T01:16:31.745Z,77.41
2017-12-26T01:17:36.069Z,77.80
2017-12-26T01:18:40.293Z,77.43
2017-12-26T01:19:45.468Z,77.43
2017-12-26T01:20:49.676Z,77.52
2017-12-26T01:21:53.942Z,77.34
2017-12-26T01:22:58.132Z,77.43
2017-12-26T01:25:15.345Z,77.60
2017-12-26T01:26:19.548Z,77.63
2017-12-26T01:27:23.848Z,77.86
2017-12-26T01:28:28.484Z,77.64
2017-12-26T01:29:32.731Z,77.76
2017-12-26T01:30:37.326Z,77.92
2017-12-26T01:31:41.654Z,77.77
2017-12-26T01:32:45.896Z,77.77
2017-12-26T01:33:50.651Z,77.87
2017-12-26T01:34:55.837Z,77.92
2017-12-26T01:36:00.178Z,77.61
2017-12-26T01:37:04.465Z,78.08
2017-12-26T01:38:08.634Z,78.11
2017-12-26T01:39:13.016Z,77.69
2017-12-26T01:40:17.564Z,78.07
2017-12-26T01:41:21.932Z,78.01
2017-12-26T01:42:26.078Z,78.07
2017-12-26T01:43:30.325Z,77.78
2017-12-26T01:44:34.630Z,77.93
2017-12-26T01:45:39.061Z,78.10
2017-12-26T01:46:45.093Z,78.29
2017-12-26T01:47:49.326Z,77.96
2017-12-26T01:48:54.171Z,78.00
2017-12-26T01:49:58.370Z,78.22
2017-12-26T01:51:02.555Z,78.48
2017-12-26T01:52:06.832Z,78.18
2017-12-26T01:53:11.860Z,78.35
2017-12-26T01:54:16.035Z,78.37
2017-12-26T01:55:20.281Z,78.49
2017-12-26T01:56:24.466Z,77.83
2017-12-26T01:57:28.732Z,77.96
2017-12-26T01:58:32.909Z,77.90
2017-12-26T01:59:37.483Z,78.29
2017-12-26T02:00:42.461Z,78.33
2017-12-26T02:01:46.698Z,78.40
2017-12-26T02:02:50.890Z,78.11
2017-12-26T02:03:55.506Z,78.10
2017-12-26T02:04:59.740Z,78.24
2017-12-26T02:06:08.520Z,78.21
2017-12-26T02:07:18.732Z,78.36
2017-12-26T02:08:32.090Z,78.09
2017-12-26T02:09:36.910Z,78.56
2017-12-26T02:10:41.116Z,78.70
2017-12-26T02:11:45.389Z,78.34
2017-12-26T02:12:50.018Z,78.15
2017-12-26T02:13:54.679Z,78.43
2017-12-26T02:14:58.994Z,78.48
2017-12-26T02:16:03.386Z,78.75
2017-12-26T02:17:07.803Z,78.37
2017-12-26T02:18:11.936Z,78.51
2017-12-26T02:19:16.442Z,78.79
2017-12-26T02:20:20.684Z,78.50
2017-12-26T02:21:24.912Z,78.80
2017-12-26T02:22:29.138Z,79.26
2017-12-26T02:23:33.734Z,79.08
2017-12-26T02:24:38.234Z,78.51
2017-12-26T02:25:42.554Z,78.42
2017-12-26T02:26:46.727Z,78.50
2017-12-26T02:27:50.898Z,78.73
2017-12-26T02:28:55.598Z,78.70
2017-12-26T02:29:59.734Z,78.90
2017-12-26T02:31:04.471Z,78.75
2017-12-26T02:32:08.677Z,78.74
2017-12-26T02:33:13.207Z,78.80
2017-12-26T02:34:17.450Z,79.11
2017-12-26T02:35:21.659Z,78.95
2017-12-26T02:36:25.968Z,79.48
2017-12-26T02:37:30.510Z,79.77
2017-12-26T02:38:34.680Z,79.65
2017-12-26T02:39:38.868Z,79.55
2017-12-26T02:40:44.408Z,79.53
2017-12-26T02:41:48.614Z,79.73
2017-12-26T02:42:52.823Z,80.04
2017-12-26T02:43:57.874Z,79.74
2017-12-26T02:45:04.143Z,79.16
2017-12-26T02:46:08.625Z,79.18
2017-12-26T02:47:12.817Z,79.32
2017-12-26T02:48:18.665Z,79.25
2017-12-26T02:49:22.924Z,78.95
2017-12-26T02:50:27.725Z,79.35
2017-12-26T02:51:31.888Z,78.94
2017-12-26T02:52:36.043Z,78.97
2017-12-26T02:53:40.297Z,79.13
2017-12-26T02:54:44.535Z,79.22
2017-12-26T02:55:49.065Z,79.44
2017-12-26T02:56:53.623Z,79.50
2017-12-26T02:57:58.122Z,80.01
2017-12-26T02:59:02.264Z,79.62
2017-12-26T03:00:09.100Z,79.50
2017-12-26T03:01:13.739Z,79.69
2017-12-26T03:02:18.240Z,80.13
2017-12-26T03:03:22.444Z,79.92
2017-12-26T03:04:26.664Z,79.74
2017-12-26T03:05:30.846Z,80.09
2017-12-26T03:06:35.174Z,80.32
2017-12-26T03:07:39.501Z,80.03
2017-12-26T03:08:44.913Z,80.54
2017-12-26T03:09:49.139Z,80.79
2017-12-26T03:10:53.259Z,80.76
2017-12-26T03:11:57.496Z,80.92
2017-12-26T03:13:01.855Z,81.27
2017-12-26T03:14:06.290Z,80.96
2017-12-26T03:15:12.568Z,81.05
2017-12-26T03:16:23.053Z,80.74
2017-12-26T03:17:27.200Z,80.55
2017-12-26T03:18:31.336Z,80.59
2017-12-26T03:19:35.459Z,80.41
2017-12-26T03:20:39.982Z,80.75
2017-12-26T03:21:44.135Z,80.80
2017-12-26T03:22:48.306Z,80.86
2017-12-26T03:23:52.983Z,81.05
2017-12-26T03:24:57.127Z,80.65
2017-12-26T03:26:01.355Z,80.56
2017-12-26T03:27:05.810Z,80.65
2017-12-26T03:28:09.952Z,80.97
2017-12-26T03:29:14.159Z,80.91
2017-12-26T03:30:19.243Z,80.91
2017-12-26T03:31:23.493Z,80.67
2017-12-26T03:32:37.575Z,81.04
2017-12-26T03:33:41.721Z,81.33
2017-12-26T03:34:45.865Z,81.62
2017-12-26T03:35:50.085Z,81.39
2017-12-26T03:36:54.929Z,81.26
2017-12-26T03:37:59.067Z,81.47
2017-12-26T03:39:03.522Z,81.30
2017-12-26T03:40:07.830Z,81.17
2017-12-26T03:41:11.963Z,81.08
2017-12-26T03:42:16.352Z,81.07
2017-12-26T03:43:20.549Z,81.37
2017-12-26T03:44:24.770Z,81.08
2017-12-26T03:45:29.119Z,80.88
2017-12-26T03:46:33.263Z,80.90
2017-12-26T03:47:37.491Z,80.88
2017-12-26T03:48:41.950Z,81.05
2017-12-26T03:49:46.074Z,80.62
2017-12-26T03:50:50.523Z,80.50
2017-12-26T03:51:54.652Z,80.39
2017-12-26T03:52:58.886Z,80.68
2017-12-26T03:54:03.134Z,80.77
2017-12-26T03:55:07.510Z,81.09
2017-12-26T03:56:11.774Z,81.06
2017-12-26T03:57:16.850Z,81.16
2017-12-26T03:58:21.072Z,81.35
2017-12-26T03:59:25.221Z,81.59
2017-12-26T04:00:29.719Z,81.62
2017-12-26T04:01:33.886Z,81.89
2017-12-26T04:02:38.006Z,81.46
2017-12-26T04:03:42.830Z,81.25
2017-12-26T04:04:46.962Z,81.10
2017-12-26T04:05:51.730Z,81.38
2017-12-26T04:06:55.894Z,81.66
2017-12-26T04:08:00.083Z,81.95
2017-12-26T04:09:04.493Z,82.26
2017-12-26T04:10:08.624Z,81.79
2017-12-26T04:11:12.726Z,81.50
2017-12-26T04:12:16.877Z,81.43
2017-12-26T04:13:23.925Z,81.59
2017-12-26T04:14:28.359Z,81.32
2017-12-26T04:15:32.678Z,81.71
2017-12-26T04:16:37.131Z,81.46
2017-12-26T04:17:41.270Z,81.42
2017-12-26T04:18:46.385Z,81.67
2017-12-26T04:19:51.051Z,81.72
2017-12-26T04:20:55.505Z,81.77
2017-12-26T04:21:59.640Z,81.78
2017-12-26T04:23:03.803Z,81.37
2017-12-26T04:24:15.216Z,81.59
2017-12-26T04:25:19.383Z,81.84
2017-12-26T04:26:23.545Z,81.83
2017-12-26T04:27:27.977Z,82.00
2017-12-26T04:28:32.206Z,81.71
2017-12-26T04:29:36.398Z,82.13
2017-12-26T04:30:40.534Z,81.94
2017-12-26T04:31:45.084Z,81.97
2017-12-26T04:32:49.247Z,81.84
2017-12-26T04:33:54.302Z,82.37
2017-12-26T04:34:58.510Z,82.07
2017-12-26T04:36:02.636Z,81.73
2017-12-26T04:37:06.886Z,82.16
2017-12-26T04:38:11.040Z,81.97
2017-12-26T04:39:15.448Z,82.23
2017-12-26T04:40:19.692Z,82.07
2017-12-26T04:41:24.094Z,81.99
2017-12-26T04:42:28.199Z,81.79
2017-12-26T04:43:32.326Z,81.55
2017-12-26T04:44:36.441Z,81.35
2017-12-26T04:45:41.249Z,81.24
2017-12-26T04:46:46.327Z,81.41
2017-12-26T04:47:51.131Z,81.16
2017-12-26T04:48:55.477Z,81.32
2017-12-26T04:49:59.641Z,81.24
2017-12-26T04:51:04.191Z,81.10
2017-12-26T04:52:08.354Z,81.45
2017-12-26T04:53:12.585Z,81.50
2017-12-26T04:54:17.206Z,81.46
2017-12-26T04:55:21.457Z,81.28
2017-12-26T04:56:27.157Z,81.56
2017-12-26T04:57:31.269Z,81.56
2017-12-26T04:58:36.067Z,81.45
2017-12-26T04:59:40.270Z,81.42
2017-12-26T05:00:45.424Z,81.45
2017-12-26T05:01:49.509Z,81.37
2017-12-26T05:02:53.921Z,81.37
2017-12-26T05:03:58.064Z,81.61
2017-12-26T05:05:02.173Z,81.59
2017-12-26T05:06:06.663Z,81.48
2017-12-26T05:07:10.861Z,81.38
2017-12-26T05:08:17.311Z,81.69
2017-12-26T05:09:21.820Z,81.61
2017-12-26T05:10:26.011Z,82.05
2017-12-26T05:11:30.156Z,82.19
2017-12-26T05:12:34.452Z,82.04
2017-12-26T05:13:38.581Z,82.17
2017-12-26T05:14:43.314Z,82.41
2017-12-26T05:15:47.746Z,81.60
2017-12-26T05:16:51.863Z,81.58
2017-12-26T05:17:56.221Z,81.60
2017-12-26T05:19:00.449Z,81.90
2017-12-26T05:20:04.596Z,82.01
2017-12-26T05:21:09.362Z,82.02
2017-12-26T05:22:13.555Z,81.58
2017-12-26T05:23:20.009Z,81.26
2017-12-26T05:24:24.127Z,81.22
2017-12-26T05:25:33.076Z,81.25
2017-12-26T05:26:37.341Z,81.12
2017-12-26T05:27:41.781Z,81.27
2017-12-26T05:28:45.925Z,81.31
2017-12-26T05:29:50.162Z,81.25
2017-12-26T05:30:55.333Z,81.13
2017-12-26T05:31:59.500Z,81.55
2017-12-26T05:33:04.566Z,81.24
2017-12-26T05:34:08.790Z,80.92
2017-12-26T05:35:12.925Z,81.02
2017-12-26T05:36:17.069Z,80.56
2017-12-26T05:37:22.935Z,80.38
2017-12-26T05:38:27.658Z,80.17
2017-12-26T05:39:32.182Z,80.37
2017-12-26T05:40:37.569Z,80.79
2017-12-26T05:41:41.971Z,80.85
2017-12-26T05:42:46.133Z,80.72
2017-12-26T05:43:50.259Z,80.49
2017-12-26T05:44:55.514Z,80.37
2017-12-26T05:45:59.902Z,80.29
2017-12-26T05:47:04.163Z,80.10
2017-12-26T05:48:10.871Z,79.80
2017-12-26T05:49:14.991Z,79.69
2017-12-26T05:50:19.090Z,79.94
2017-12-26T05:51:23.641Z,79.97
2017-12-26T05:52:27.858Z,79.77
2017-12-26T05:53:31.984Z,79.71
2017-12-26T05:54:36.154Z,79.47
2017-12-26T05:55:40.270Z,79.47
2017-12-26T05:56:44.404Z,79.21
2017-12-26T05:57:48.934Z,79.42
2017-12-26T05:58:53.462Z,79.41
2017-12-26T05:59:57.663Z,79.45
2017-12-26T06:01:02.246Z,79.31
2017-12-26T06:02:06.365Z,79.21
2017-12-26T06:03:10.514Z,79.15
2017-12-26T06:04:14.968Z,79.20
2017-12-26T06:05:19.178Z,79.17
2017-12-26T06:06:23.309Z,79.28
2017-12-26T06:07:27.409Z,79.49
2017-12-26T06:08:31.648Z,79.40
2017-12-26T06:09:35.760Z,79.20
2017-12-26T06:10:39.995Z,79.19
2017-12-26T06:11:44.993Z,79.11
2017-12-26T06:12:49.098Z,79.24
2017-12-26T06:13:53.354Z,79.18
2017-12-26T06:14:57.489Z,79.02
2017-12-26T06:16:02.079Z,78.87
2017-12-26T06:17:06.485Z,79.18
2017-12-26T06:18:10.873Z,79.14
2017-12-26T06:19:14.975Z,78.95
2017-12-26T06:20:19.161Z,78.96
2017-12-26T06:21:23.339Z,78.81
2017-12-26T06:22:27.776Z,78.80
2017-12-26T06:23:31.903Z,78.74
2017-12-26T06:24:36.135Z,78.89
2017-12-26T06:25:40.326Z,78.91
2017-12-26T06:26:45.346Z,79.11
2017-12-26T06:27:50.199Z,78.81
2017-12-26T06:28:54.596Z,78.70
2017-12-26T06:29:58.819Z,78.65
2017-12-26T06:31:03.299Z,78.55
2017-12-26T06:32:07.562Z,78.86
2017-12-26T06:33:11.874Z,78.85
2017-12-26T06:34:16.959Z,78.45
2017-12-26T06:35:21.478Z,78.28
2017-12-26T06:36:27.301Z,78.37
2017-12-26T06:37:31.565Z,78.54
2017-12-26T06:38:36.103Z,78.43
2017-12-26T06:39:40.220Z,78.50
2017-12-26T06:40:48.598Z,78.47
2017-12-26T06:41:52.751Z,78.41
2017-12-26T06:42:56.926Z,78.52
2017-12-26T06:44:01.184Z,78.04
2017-12-26T06:45:06.735Z,78.23
2017-12-26T06:46:11.541Z,78.37
2017-12-26T06:47:15.725Z,78.60
2017-12-26T06:48:20.124Z,78.63
2017-12-26T06:49:24.338Z,78.32
2017-12-26T06:50:28.734Z,78.32
2017-12-26T06:51:32.922Z,78.39
2017-12-26T06:52:37.638Z,78.53
2017-12-26T06:53:42.738Z,78.69
2017-12-26T06:54:46.980Z,78.44
2017-12-26T06:55:52.026Z,78.21
2017-12-26T06:56:56.505Z,78.52
2017-12-26T06:58:00.687Z,78.54
2017-12-26T06:59:05.227Z,78.33
2017-12-26T07:00:16.642Z,78.16
2017-12-26T07:01:20.822Z,78.17
2017-12-26T07:02:24.919Z,77.90
2017-12-26T07:03:29.158Z,78.06
2017-12-26T07:04:33.302Z,78.02
2017-12-26T07:05:37.795Z,78.13
2017-12-26T07:06:42.003Z,78.26
2017-12-26T07:07:46.142Z,78.09
2017-12-26T07:08:50.391Z,77.78
2017-12-26T07:09:54.574Z,77.79
2017-12-26T07:10:58.686Z,77.78
2017-12-26T07:12:02.816Z,77.95
2017-12-26T07:13:06.938Z,77.69
2017-12-26T07:14:11.088Z,77.83
2017-12-26T07:15:16.394Z,77.61
2017-12-26T07:16:20.889Z,77.76
2017-12-26T07:17:25.409Z,77.86
2017-12-26T07:18:29.828Z,77.92
2017-12-26T07:19:37.976Z,77.77
2017-12-26T07:20:46.251Z,77.85
2017-12-26T07:22:52.985Z,77.89
2017-12-26T07:23:57.187Z,78.16
2017-12-26T07:25:01.351Z,78.19
2017-12-26T07:26:05.549Z,78.27
2017-12-26T07:27:14.799Z,78.59
2017-12-26T07:28:19.233Z,78.63
2017-12-26T07:29:23.964Z,78.88
2017-12-26T07:30:28.205Z,79.23
2017-12-26T07:31:32.737Z,79.28
2017-12-26T07:32:36.914Z,79.93
2017-12-26T07:33:41.039Z,80.10
2017-12-26T07:34:46.455Z,80.73
2017-12-26T07:35:51.717Z,80.83
2017-12-26T07:36:55.826Z,80.81
2017-12-26T07:38:00.495Z,81.22
2017-12-26T07:39:04.703Z,80.81
2017-12-26T07:40:24.713Z,81.30
2017-12-26T07:41:29.178Z,81.73
2017-12-26T07:42:33.364Z,81.72
2017-12-26T07:43:38.339Z,81.99
2017-12-26T07:44:43.490Z,81.93
2017-12-26T07:45:49.531Z,82.86
2017-12-26T07:46:54.452Z,82.19
2017-12-26T07:47:58.831Z,82.84
2017-12-26T07:49:03.350Z,82.77
2017-12-26T07:50:07.637Z,83.04
2017-12-26T07:51:12.011Z,83.73
2017-12-26T07:52:16.176Z,84.05
2017-12-26T07:53:21.223Z,83.92
2017-12-26T07:54:25.325Z,84.02
2017-12-26T07:55:29.462Z,84.09
2017-12-26T07:56:33.855Z,83.24
2017-12-26T07:57:38.458Z,83.55
2017-12-26T07:58:43.574Z,83.71
2017-12-26T07:59:48.061Z,83.38
2017-12-26T08:00:52.672Z,83.51
2017-12-26T08:01:56.874Z,83.67
2017-12-26T08:03:01.050Z,83.84
2017-12-26T08:04:05.254Z,83.65
2017-12-26T08:05:11.530Z,83.40
2017-12-26T08:06:16.070Z,83.00
2017-12-26T08:07:20.339Z,82.40
2017-12-26T08:08:24.919Z,82.11
2017-12-26T08:09:29.178Z,82.06
2017-12-26T08:10:33.315Z,82.56
2017-12-26T08:11:37.509Z,83.02
2017-12-26T08:12:42.745Z,82.42
2017-12-26T08:13:47.756Z,82.31
2017-12-26T08:14:52.508Z,82.89
2017-12-26T08:15:56.949Z,82.50
2017-12-26T08:17:01.373Z,82.39
2017-12-26T08:18:05.869Z,83.03
2017-12-26T08:19:10.047Z,83.44
2017-12-26T08:20:14.245Z,84.23
2017-12-26T08:21:18.354Z,85.00
2017-12-26T08:22:30.507Z,85.53
2017-12-26T08:23:35.054Z,86.55
2017-12-26T08:24:39.207Z,86.94
2017-12-26T08:25:43.382Z,87.71
2017-12-26T08:26:47.641Z,87.99
2017-12-26T08:27:51.808Z,88.50
2017-12-26T08:28:56.643Z,88.36
2017-12-26T08:30:03.108Z,89.13
2017-12-26T08:31:07.606Z,88.94
2017-12-26T08:32:11.765Z,89.25
2017-12-26T08:33:16.274Z,89.28
2017-12-26T08:34:20.454Z,89.38
2017-12-26T08:35:25.079Z,89.72
2017-12-26T08:36:29.290Z,90.03
2017-12-26T08:37:33.562Z,90.52
2017-12-26T08:38:37.718Z,90.04
2017-12-26T08:39:41.879Z,90.25
2017-12-26T08:40:46.049Z,90.81
2017-12-26T08:41:50.543Z,90.44
2017-12-26T08:42:55.610Z,91.11
2017-12-26T08:43:59.788Z,91.21
2017-12-26T08:45:05.910Z,90.93
2017-12-26T08:46:10.317Z,91.12
2017-12-26T08:47:14.986Z,91.19
2017-12-26T08:48:22.579Z,91.25
2017-12-26T08:49:26.711Z,91.20
2017-12-26T08:50:30.934Z,91.32
2017-12-26T08:51:35.216Z,91.54
2017-12-26T08:52:39.438Z,91.85
2017-12-26T08:53:44.038Z,90.98
2017-12-26T08:54:49.277Z,91.15
2017-12-26T08:55:54.478Z,90.62
2017-12-26T08:56:58.639Z,90.77
2017-12-26T08:58:02.818Z,90.06
2017-12-26T08:59:07.232Z,90.12
2017-12-26T09:00:24.822Z,89.83
2017-12-26T09:01:29.126Z,90.46
2017-12-26T09:02:33.363Z,90.36
2017-12-26T09:03:37.569Z,89.95
2017-12-26T09:04:41.779Z,89.36
2017-12-26T09:05:46.110Z,89.17
2017-12-26T09:06:50.623Z,89.09
2017-12-26T09:07:55.527Z,89.49
2017-12-26T09:08:59.713Z,89.19
2017-12-26T09:10:04.379Z,89.27
2017-12-26T09:11:09.711Z,88.87
2017-12-26T09:12:15.962Z,88.79
2017-12-26T09:13:21.349Z,88.84
2017-12-26T09:14:25.730Z,88.65
2017-12-26T09:15:30.085Z,89.01
2017-12-26T09:16:34.463Z,89.53
2017-12-26T09:17:38.729Z,89.13
2017-12-26T09:18:43.243Z,89.15
2017-12-26T09:19:47.426Z,88.93
2017-12-26T09:20:51.621Z,88.81
2017-12-26T09:21:56.302Z,88.96
2017-12-26T09:23:00.544Z,89.00
2017-12-26T09:24:05.040Z,88.89
2017-12-26T09:25:09.184Z,89.02
2017-12-26T09:26:13.910Z,88.91
2017-12-26T09:27:18.159Z,88.56
2017-12-26T09:28:22.362Z,88.90
2017-12-26T09:29:26.568Z,88.73
2017-12-26T09:30:31.258Z,88.20
2017-12-26T09:31:35.470Z,88.91
2017-12-26T09:32:39.771Z,88.48
2017-12-26T09:33:43.945Z,88.61
2017-12-26T09:34:48.221Z,88.66
2017-12-26T09:35:52.358Z,89.20
2017-12-26T09:36:56.862Z,89.31
2017-12-26T09:38:01.031Z,89.67
2017-12-26T09:39:05.970Z,89.77
2017-12-26T09:40:10.120Z,89.66
2017-12-26T09:41:14.295Z,89.45
2017-12-26T09:42:18.669Z,89.91
2017-12-26T09:43:22.866Z,89.47
2017-12-26T09:44:27.126Z,89.23
2017-12-26T09:45:31.463Z,88.70
2017-12-26T09:46:35.609Z,89.05
2017-12-26T09:47:39.838Z,88.93
2017-12-26T09:48:46.701Z,87.94
2017-12-26T09:49:50.897Z,87.62
2017-12-26T09:50:56.142Z,87.35
2017-12-26T09:52:00.298Z,87.69
2017-12-26T09:53:04.533Z,86.79
2017-12-26T09:54:17.067Z,86.73
2017-12-26T09:55:21.322Z,86.88
2017-12-26T09:56:26.347Z,87.47
2017-12-26T09:57:30.632Z,86.19
2017-12-26T09:58:35.499Z,86.46
2017-12-26T09:59:39.724Z,86.52
2017-12-26T10:00:51.952Z,85.60
2017-12-26T10:01:58.819Z,85.86
2017-12-26T10:03:03.070Z,85.98
2017-12-26T10:04:07.306Z,86.28
2017-12-26T10:05:11.774Z,86.81
2017-12-26T10:06:17.047Z,86.15
2017-12-26T10:07:21.658Z,86.31
2017-12-26T10:08:26.134Z,86.13
2017-12-26T10:09:30.455Z,86.76
2017-12-26T10:10:34.635Z,86.44
2017-12-26T10:11:38.814Z,86.49
2017-12-26T10:12:43.099Z,86.61
2017-12-26T10:13:47.268Z,86.76
2017-12-26T10:14:51.469Z,87.16
2017-12-26T10:15:55.650Z,87.61
2017-12-26T10:16:59.903Z,87.79
2017-12-26T10:18:04.161Z,87.75
2017-12-26T10:19:08.419Z,88.29
2017-12-26T10:20:12.601Z,88.60
2017-12-26T10:21:16.790Z,88.57
2017-12-26T10:22:21.042Z,88.72
2017-12-26T10:23:25.608Z,89.17
2017-12-26T10:24:30.204Z,89.04
2017-12-26T10:25:34.395Z,89.01
2017-12-26T10:26:38.589Z,88.54
2017-12-26T10:27:43.775Z,88.09
2017-12-26T10:28:47.979Z,87.88
2017-12-26T10:29:53.184Z,87.77
2017-12-26T10:30:57.692Z,88.12
2017-12-26T10:32:02.149Z,88.26
2017-12-26T10:33:06.832Z,87.85
2017-12-26T10:34:11.066Z,87.41
2017-12-26T10:35:15.603Z,87.80
2017-12-26T10:36:19.849Z,87.46
2017-12-26T10:37:24.137Z,87.58
2017-12-26T10:38:28.313Z,87.40
2017-12-26T10:39:32.564Z,87.21
2017-12-26T10:40:36.871Z,86.89
2017-12-26T10:41:42.044Z,86.08
2017-12-26T10:42:47.555Z,86.30
2017-12-26T10:43:52.710Z,85.90
2017-12-26T10:44:56.917Z,85.85
2017-12-26T10:46:01.560Z,85.86
2017-12-26T10:47:05.725Z,85.46
2017-12-26T10:48:10.332Z,84.78
2017-12-26T10:49:14.733Z,84.55
2017-12-26T10:50:18.937Z,84.43
2017-12-26T10:51:24.121Z,84.60
2017-12-26T10:52:28.314Z,84.71
2017-12-26T10:53:32.852Z,85.06
2017-12-26T10:54:37.133Z,84.84
2017-12-26T10:55:41.412Z,84.19
2017-12-26T10:56:46.535Z,83.92
2017-12-26T10:57:51.276Z,84.04
2017-12-26T10:58:55.444Z,82.99
2017-12-26T10:59:59.663Z,83.78
2017-12-26T11:01:04.180Z,84.08
2017-12-26T11:02:08.382Z,84.61
2017-12-26T11:03:12.755Z,84.00
2017-12-26T11:04:17.435Z,84.07
2017-12-26T11:05:22.150Z,83.96
2017-12-26T11:06:27.977Z,83.93
2017-12-26T11:07:32.143Z,84.35
2017-12-26T11:20:15.060Z,85.25
2017-12-26T11:21:19.253Z,84.45
2017-12-26T11:22:23.456Z,84.03
2017-12-26T11:23:27.821Z,84.43
2017-12-26T11:24:32.322Z,83.78
2017-12-26T11:25:36.891Z,83.85
2017-12-26T11:26:41.080Z,84.25
2017-12-26T11:27:45.402Z,83.13
2017-12-26T11:28:49.606Z,83.02
2017-12-26T11:29:53.810Z,82.14
2017-12-26T11:30:58.440Z,81.95
2017-12-26T11:32:03.161Z,82.22
2017-12-26T11:33:07.508Z,83.10
2017-12-26T11:34:11.761Z,81.47
2017-12-26T11:35:16.237Z,80.79
2017-12-26T11:36:20.543Z,79.79
2017-12-26T11:37:24.973Z,79.23
2017-12-26T11:38:29.191Z,77.39
2017-12-26T11:39:33.410Z,76.08
2017-12-26T11:40:37.982Z,75.93
2017-12-26T11:41:43.158Z,75.04
2017-12-26T11:42:47.333Z,74.88
2017-12-26T11:43:52.804Z,74.66
2017-12-26T11:44:57.761Z,75.41
2017-12-26T11:46:02.249Z,76.33
2017-12-26T11:47:06.404Z,76.67
2017-12-26T11:48:16.111Z,77.00
2017-12-26T11:49:20.327Z,75.35
2017-12-26T11:50:24.488Z,74.38
2017-12-26T11:51:28.664Z,74.35
2017-12-26T11:52:32.960Z,75.01
2017-12-26T11:53:37.287Z,74.94
2017-12-26T11:54:41.512Z,74.58
2017-12-26T11:55:46.050Z,74.15
2017-12-26T11:56:54.173Z,73.54
2017-12-26T11:58:00.663Z,72.58
2017-12-26T11:59:04.940Z,71.99
2017-12-26T12:00:09.495Z,71.26
2017-12-26T12:01:13.679Z,70.99
2017-12-26T12:02:18.102Z,71.16
2017-12-26T12:03:22.428Z,70.86
2017-12-26T12:04:26.645Z,69.77
2017-12-26T12:05:30.973Z,70.54
2017-12-26T12:06:35.484Z,69.17
2017-12-26T12:07:39.674Z,69.20
2017-12-26T12:08:44.815Z,69.33
2017-12-26T12:09:49.063Z,67.40
2017-12-26T12:10:53.318Z,69.50
2017-12-26T12:13:04.814Z,70.49
2017-12-26T12:14:09.111Z,71.10
2017-12-26T12:15:14.840Z,71.44
2017-12-26T12:16:19.503Z,72.43
2017-12-26T12:17:23.953Z,73.22
2017-12-26T12:18:28.275Z,72.80
2017-12-26T12:19:32.785Z,73.97
2017-12-26T12:20:36.942Z,73.16
2017-12-26T12:21:41.131Z,73.37
2017-12-26T12:22:46.063Z,73.07
2017-12-26T12:23:51.301Z,73.62
2017-12-26T12:24:55.667Z,74.68
2017-12-26T12:26:00.318Z,73.49
2017-12-26T12:27:04.551Z,73.34
2017-12-26T12:28:08.753Z,74.08
2017-12-26T12:29:13.134Z,74.29
2017-12-26T12:30:19.261Z,73.34
2017-12-26T12:31:23.606Z,72.83
2017-12-26T12:32:37.875Z,73.07
2017-12-26T12:33:42.126Z,71.38
2017-12-26T12:34:46.427Z,70.96
2017-12-26T12:35:50.742Z,69.85
2017-12-26T12:36:55.430Z,70.61
2017-12-26T12:37:59.596Z,69.07
2017-12-26T12:39:04.427Z,68.90
2017-12-26T12:40:09.066Z,68.00
2017-12-26T12:41:13.304Z,66.73
2017-12-26T12:42:17.809Z,67.26
2017-12-26T12:43:22.516Z,67.37
2017-12-26T12:44:26.765Z,68.65
2017-12-26T12:45:31.726Z,68.97
2017-12-26T12:46:36.658Z,70.41
2017-12-26T12:47:41.022Z,68.74
2017-12-26T12:48:45.522Z,68.48
2017-12-26T12:49:50.043Z,69.26
2017-12-26T12:50:54.917Z,68.39
2017-12-26T12:51:59.262Z,67.28
2017-12-26T12:53:03.705Z,68.27
2017-12-26T12:54:08.128Z,68.19
2017-12-26T12:55:12.276Z,69.32
2017-12-26T12:56:16.451Z,68.98
2017-12-26T12:57:21.883Z,70.06
2017-12-26T12:58:26.123Z,71.32
2017-12-26T12:59:30.338Z,69.78
2017-12-26T13:00:35.209Z,69.49
2017-12-26T13:01:39.766Z,70.47
2017-12-26T13:02:44.096Z,71.33
2017-12-26T13:03:48.967Z,72.47
2017-12-26T13:04:54.117Z,72.74
2017-12-26T13:05:58.423Z,72.89
2017-12-26T13:07:03.111Z,73.34
2017-12-26T13:08:07.720Z,73.50
2017-12-26T13:09:12.040Z,72.64
2017-12-26T13:10:16.752Z,73.31
2017-12-26T13:11:21.211Z,73.79
2017-12-26T13:12:25.583Z,73.65
2017-12-26T13:13:29.815Z,73.18
2017-12-26T13:14:34.870Z,72.36
2017-12-26T13:15:39.287Z,73.02
2017-12-26T13:16:43.663Z,74.02
2017-12-26T13:17:48.573Z,75.05
2017-12-26T13:18:53.811Z,74.87
2017-12-26T13:19:58.072Z,75.29
2017-12-26T13:21:02.293Z,74.12
2017-12-26T13:22:06.555Z,71.92
2017-12-26T13:23:10.912Z,70.47
2017-12-26T13:24:15.192Z,70.37
2017-12-26T13:25:19.805Z,70.90
2017-12-26T13:26:24.046Z,69.87
2017-12-26T13:27:28.523Z,70.44
2017-12-26T13:28:33.675Z,70.82
2017-12-26T13:29:37.898Z,70.70
2017-12-26T13:30:42.251Z,68.54
2017-12-26T13:31:46.842Z,68.73
2017-12-26T13:32:51.881Z,68.32
2017-12-26T13:33:56.419Z,68.37
2017-12-26T13:35:00.632Z,68.66
2017-12-26T13:36:05.028Z,68.79
2017-12-26T13:37:09.219Z,69.20
2017-12-26T13:38:13.427Z,70.53
2017-12-26T13:39:17.888Z,71.74
2017-12-26T13:40:22.427Z,73.00
2017-12-26T13:41:26.693Z,73.84
2017-12-26T13:42:31.017Z,74.59
2017-12-26T13:43:35.306Z,74.96
2017-12-26T13:44:39.811Z,75.25
2017-12-26T13:45:44.225Z,75.54
2017-12-26T13:46:48.733Z,75.02
2017-12-26T13:47:53.011Z,73.31
2017-12-26T13:48:59.080Z,72.24
2017-12-26T13:50:03.444Z,70.68
2017-12-26T13:51:07.811Z,71.34
2017-12-26T13:52:12.058Z,72.38
2017-12-26T13:53:16.425Z,73.46
2017-12-26T13:54:20.636Z,74.64
2017-12-26T13:55:24.900Z,75.06
2017-12-26T13:56:29.155Z,75.67
2017-12-26T13:57:33.735Z,76.54
2017-12-26T13:58:38.859Z,76.49
2017-12-26T13:59:43.130Z,76.96
2017-12-26T14:00:47.546Z,76.65
2017-12-26T14:01:52.053Z,76.52
2017-12-26T14:02:56.818Z,76.61
2017-12-26T14:04:01.028Z,76.15
2017-12-26T14:05:05.351Z,76.71
2017-12-26T14:06:09.669Z,76.44
2017-12-26T14:07:15.126Z,76.20
2017-12-26T14:08:20.650Z,76.65
2017-12-26T14:09:24.912Z,76.50